Cut Bank, MT

12:35 PM MDT on June 22, 2017 (GMT -0600)
Cut Bank Municipal | | Change Station

Elev 3855 ft 48.61 °N, 112.38 °W | Updated 39 minutes ago

Clear
Clear
59 °F
Feels Like 59 °F
N
24
Wind Variable Wind from North
Gusts 32 mph

Today
High -- | Low -- °F
--% Chance of Precip.
Yesterday
High -- | Low -- °F
Precip. -- in
Pressure 30.12 in
Visibility 10.0 miles
Clouds Clear
Dew Point 33 °F
Humidity 38%
Rainfall 0.00 in
Snow Depth Not available.
5:27 AM 9:35 PM
Waning Crescent, 3% visible
METAR KCTB 221756Z AUTO 36021G28KT 10SM CLR 15/01 A3013 RMK AO2 PK WND 35029/1733 SLP198 T01500006 10167 20044 53014
Pressure 30.12 in
Visibility 10.0 miles
Clouds Clear
Dew Point 33 °F
Humidity 38%
Rainfall 0.00 in
Snow Depth Not available.
5:27 AM 9:35 PM
Waning Crescent, 3% visible
METAR KCTB 221756Z AUTO 36021G28KT 10SM CLR 15/01 A3013 RMK AO2 PK WND 35029/1733 SLP198 T01500006 10167 20044 53014

Get Severe Weather Alerts

Thanks for signing up!

Be on the lookout for a verification email in your inbox.

You'll start receiving the daily forecast at 6 AM.

×

10-Day Weather Forecast

Almanac

Astronomy

Jun. 22, 2017 Rise Set
Actual Time
Civil Twilight
Nautical Twilight
Astronomical Twilight
Moon
Length of Visible Light
Length of Day
Tomorrow will be .
, % of the Moon is Illuminated

Today's Extremes

State Highs State Lows

Community

WunderPhotos

Category 6

Welcome to Category 6. This is the collective home for Weather Underground's featured writeups by Dr. Jeff Masters (right), Bob Henson (left), Chris Burt, and other regular contributors.

Nearby

Air Quality

  Air Quality AQ Index Pollutant
Not available.

Snow Depth

Station Depth Elevation

Earthquake Activity

City Distance Mag. Time & Date
Minimum magnitude displayed is 2.5.

Coastal Water Temperatures

Place Temperature

Stations

Nearby Weather Stations

Station Location Temp. Windchill Dew Point Humidity Wind Precip. Elev Updated Type
                   

Watches & Warnings

There are currently no watches in effect.